METAR AND TAF INFORMATION
METAR FOR KMKY
ADDS - METARS form results

(0351 UTC 26 February 2021)
Data provider http://aviationweather.gov/metar/data/
 
METAR text: KMKY 260256Z AUTO 07003KT 10SM CLR 22/12 A3017 RMK AO2 SLP214 T02220122 51011 TSNO $
Conditions at: KMKY (MARCO ISLAND , FL, US) observed 0256 UTC 26 February 2021
Temperature: 22.2°C (72°F)
Dewpoint: 12.2°C (54°F) [RH = 53%]
Pressure (altimeter): 30.17 inches Hg (1021.8 mb)
[Sea-level pressure: 1021.4 mb]
Winds: from the ENE (70 degrees) at 3 MPH (3 knots; 1.5 m/s)
Visibility: 10 or more miles (16+ km)
Ceiling: at least 12,000 feet AGL
Clouds: sky clear below 12,000 feet AGL
Weather:
SOME DATA ABOVE MAY BE INACCURATE!!!
"$" is an indication the sensor requires maintenance

 AIRPORT MAP

 RUNWAY INFORMATION
Runway 17 Runway length 5000 ft Runway width 100 ft
Runway elevation 4 ft Runway displaced threshold 0 ft Runway heading 168
Runway 35 Runway length 5000 ft Runway width 100 ft
Runway elevation 4 ft Runway displaced threshold 0 ft Runway heading 348

 AIRPORT FREQUENCIES
Type A/D Name FORT MYERS Frequency 119.75 MHZ
Type AWOS Name AWOS 3 Frequency 120.075 MHZ
Type CLD Name CLNC DEL Frequency 120.8 MHZ
Type UNIC Name CTAF/UNICO Frequency 122.8 MHZ

 AIRPORT NEAR NAVIGATION AIDS

-